createdAt,value
2023-01-31T00:01:57.486Z,87.88
2023-01-31T00:05:57.476Z,87.87
2023-01-31T00:09:56.509Z,87.87
2023-01-31T00:13:55.459Z,87.88
2023-01-31T00:17:53.403Z,87.86
2023-01-31T00:21:52.438Z,87.84
2023-01-31T00:25:50.413Z,87.82
2023-01-31T00:29:48.467Z,87.86
2023-01-31T00:33:46.421Z,87.88
2023-01-31T00:37:44.463Z,87.92
2023-01-31T00:41:43.394Z,87.90
2023-01-31T00:45:41.385Z,87.91
2023-01-31T00:49:39.354Z,87.94
2023-01-31T00:53:38.320Z,87.93
2023-01-31T00:57:36.652Z,87.92
2023-01-31T01:01:38.032Z,87.90
2023-01-31T01:05:36.663Z,87.82
2023-01-31T01:09:34.935Z,87.79
2023-01-31T01:13:33.356Z,87.71
2023-01-31T01:17:31.431Z,87.65
2023-01-31T01:21:35.303Z,87.58
2023-01-31T01:25:33.363Z,87.51
2023-01-31T01:29:31.490Z,87.42
2023-01-31T01:33:29.642Z,87.35
2023-01-31T01:37:27.291Z,87.29
2023-01-31T01:41:26.336Z,87.23
2023-01-31T01:45:29.428Z,87.19
2023-01-31T01:49:34.342Z,87.18
2023-01-31T01:53:37.282Z,87.16
2023-01-31T01:57:47.304Z,87.12
2023-01-31T02:01:50.379Z,87.03
2023-01-31T02:05:55.524Z,86.95
2023-01-31T02:10:10.249Z,86.87
2023-01-31T02:14:16.320Z,86.89
2023-01-31T02:18:14.236Z,86.88
2023-01-31T02:22:30.300Z,86.86
2023-01-31T02:26:34.358Z,86.85
2023-01-31T02:30:48.363Z,86.86
2023-01-31T02:34:59.237Z,86.90
2023-01-31T02:39:31.241Z,86.93
2023-01-31T02:44:12.216Z,86.94
2023-01-31T02:48:21.840Z,86.95
2023-01-31T02:52:47.197Z,87.01
2023-01-31T02:56:48.256Z,87.89
2023-01-31T03:00:49.213Z,87.93
2023-01-31T03:04:49.298Z,86.90
2023-01-31T03:08:47.177Z,85.93
2023-01-31T03:12:54.283Z,85.78
2023-01-31T03:17:22.196Z,85.93
2023-01-31T03:21:27.181Z,86.33
2023-01-31T03:25:28.164Z,86.19
2023-01-31T03:29:31.155Z,85.95
2023-01-31T03:33:38.155Z,86.08
2023-01-31T03:38:10.208Z,86.21
2023-01-31T03:42:19.157Z,86.45
2023-01-31T03:46:30.157Z,86.50
2023-01-31T03:50:45.239Z,86.60
2023-01-31T03:54:48.130Z,86.60
2023-01-31T03:58:55.110Z,86.59
2023-01-31T04:02:53.183Z,86.53
2023-01-31T04:06:51.104Z,86.41
2023-01-31T04:10:49.118Z,86.30
2023-01-31T04:14:47.089Z,86.23
2023-01-31T04:18:45.373Z,86.14
2023-01-31T04:22:43.071Z,86.02
2023-01-31T04:26:41.162Z,85.93
2023-01-31T04:30:39.088Z,85.84
2023-01-31T04:34:37.068Z,85.75
2023-01-31T04:38:35.031Z,85.69
2023-01-31T04:42:33.345Z,85.68
2023-01-31T04:46:31.112Z,85.69
2023-01-31T04:50:29.074Z,85.70
2023-01-31T04:54:27.039Z,85.68
2023-01-31T04:58:25.034Z,85.65
2023-01-31T05:02:23.048Z,85.64
2023-01-31T05:06:21.022Z,85.61
2023-01-31T05:10:19.053Z,85.52
2023-01-31T05:14:17.165Z,85.48
2023-01-31T05:18:15.108Z,85.47
2023-01-31T05:22:13.084Z,85.33
2023-01-31T05:26:11.026Z,85.32
2023-01-31T05:30:12.010Z,85.43
2023-01-31T05:34:10.091Z,85.38
2023-01-31T05:38:08.980Z,85.33
2023-01-31T05:42:06.983Z,85.11
2023-01-31T05:46:05.107Z,85.00
2023-01-31T05:50:03.262Z,84.80
2023-01-31T05:54:01.966Z,84.68
2023-01-31T05:58:02.413Z,84.73
2023-01-31T06:02:01.214Z,84.69
2023-01-31T06:05:59.221Z,84.69
2023-01-31T06:09:56.931Z,84.73
2023-01-31T06:13:56.931Z,84.71
2023-01-31T06:17:54.982Z,84.73
2023-01-31T06:21:52.897Z,84.80
2023-01-31T06:25:50.927Z,84.84
2023-01-31T06:29:48.923Z,84.80
2023-01-31T06:33:48.147Z,84.65
2023-01-31T06:37:47.937Z,84.46
2023-01-31T06:41:47.017Z,84.22
2023-01-31T06:45:47.037Z,84.15
2023-01-31T06:49:45.004Z,84.15
2023-01-31T06:53:42.978Z,84.00
2023-01-31T06:57:40.918Z,83.99
2023-01-31T07:01:18.492Z,83.73
2023-01-31T07:04:42.365Z,83.57
2023-01-31T07:08:06.611Z,83.42
2023-01-31T07:11:30.533Z,83.35
2023-01-31T07:14:54.388Z,83.35
2023-01-31T07:18:18.573Z,83.21
2023-01-31T07:21:42.468Z,83.08
2023-01-31T07:25:07.054Z,82.88
2023-01-31T07:28:31.253Z,82.57
2023-01-31T07:31:58.733Z,82.27
2023-01-31T07:35:23.255Z,81.95
2023-01-31T07:38:47.581Z,81.79
2023-01-31T07:42:11.407Z,81.55
2023-01-31T07:45:35.988Z,81.31
2023-01-31T07:49:00.244Z,80.77
2023-01-31T07:52:24.333Z,80.83
2023-01-31T07:55:48.753Z,80.64
2023-01-31T07:59:13.538Z,80.38
2023-01-31T08:02:55.938Z,80.05
2023-01-31T08:06:20.362Z,79.62
2023-01-31T08:09:47.333Z,79.79
2023-01-31T08:13:12.286Z,79.76
2023-01-31T08:16:39.618Z,79.78
2023-01-31T08:20:03.683Z,79.70
2023-01-31T08:23:31.978Z,79.60
2023-01-31T08:26:56.175Z,79.28
2023-01-31T08:30:20.209Z,78.92
2023-01-31T08:33:44.193Z,78.78
2023-01-31T08:37:08.116Z,78.61
2023-01-31T08:40:33.367Z,78.13
2023-01-31T08:43:59.021Z,77.67
2023-01-31T08:47:23.388Z,77.40
2023-01-31T08:50:47.305Z,76.54
2023-01-31T08:54:12.989Z,76.09
2023-01-31T08:57:43.165Z,76.07
2023-01-31T09:01:15.577Z,75.75
2023-01-31T09:04:40.160Z,75.20
2023-01-31T09:08:04.212Z,75.42
2023-01-31T09:11:30.763Z,74.90
2023-01-31T09:14:55.099Z,74.79
2023-01-31T09:18:19.027Z,74.70
2023-01-31T09:21:43.087Z,74.05
2023-01-31T09:25:07.778Z,73.79
2023-01-31T09:28:32.245Z,73.90
2023-01-31T09:31:56.113Z,73.69
2023-01-31T09:35:21.928Z,73.69
2023-01-31T09:38:46.615Z,73.41
2023-01-31T09:42:29.691Z,73.05
2023-01-31T09:45:57.641Z,73.20
2023-01-31T09:49:31.864Z,73.28
2023-01-31T09:52:55.823Z,72.99
2023-01-31T09:56:29.444Z,72.48
2023-01-31T10:00:19.806Z,72.40
2023-01-31T10:04:06.330Z,72.13
2023-01-31T10:07:33.388Z,72.10
2023-01-31T10:11:01.745Z,71.82
2023-01-31T10:14:43.190Z,72.08
2023-01-31T10:18:18.993Z,71.66
2023-01-31T10:21:54.874Z,71.39
2023-01-31T10:25:30.152Z,71.34
2023-01-31T10:29:03.890Z,71.06
2023-01-31T10:32:39.948Z,70.60
2023-01-31T10:36:12.778Z,70.27
2023-01-31T10:39:57.132Z,69.89
2023-01-31T10:43:30.698Z,70.08
2023-01-31T10:46:59.628Z,70.48
2023-01-31T10:51:02.752Z,70.45
2023-01-31T10:54:41.063Z,71.33
2023-01-31T10:58:06.713Z,70.48
2023-01-31T11:01:31.767Z,70.04
2023-01-31T11:04:59.006Z,70.32
2023-01-31T11:08:35.210Z,70.10
2023-01-31T11:12:02.530Z,70.28
2023-01-31T11:15:39.274Z,70.29
2023-01-31T11:19:16.914Z,69.99
2023-01-31T11:22:40.817Z,70.10
2023-01-31T11:26:04.917Z,69.75
2023-01-31T11:29:32.828Z,69.47
2023-01-31T11:32:57.149Z,69.12
2023-01-31T11:36:23.133Z,68.53
2023-01-31T11:40:00.781Z,67.33
2023-01-31T11:43:32.017Z,67.21
2023-01-31T11:47:04.814Z,66.88
2023-01-31T11:50:41.161Z,66.31
2023-01-31T11:54:06.427Z,65.56
2023-01-31T11:57:41.364Z,65.66
2023-01-31T12:01:14.570Z,66.07
2023-01-31T12:04:44.083Z,66.06
2023-01-31T12:08:32.764Z,66.43
2023-01-31T12:11:59.804Z,65.98
2023-01-31T12:15:23.956Z,66.21
2023-01-31T12:19:06.398Z,65.62
2023-01-31T12:22:53.990Z,65.66
2023-01-31T12:26:46.082Z,66.57
2023-01-31T12:30:30.857Z,66.36
2023-01-31T12:34:33.794Z,66.22
2023-01-31T12:38:06.535Z,66.12
2023-01-31T12:41:57.778Z,66.63
2023-01-31T12:45:24.554Z,66.90
2023-01-31T12:49:28.032Z,67.15
2023-01-31T12:53:15.084Z,66.81
2023-01-31T12:57:35.968Z,66.70
2023-01-31T13:01:06.662Z,66.37
2023-01-31T13:04:49.085Z,66.14
2023-01-31T13:08:23.325Z,66.09
2023-01-31T13:11:55.850Z,65.91
2023-01-31T13:15:35.582Z,66.37
2023-01-31T13:19:04.968Z,66.35
2023-01-31T13:22:38.240Z,66.09
2023-01-31T13:26:27.612Z,66.43
2023-01-31T13:29:58.735Z,66.33
2023-01-31T13:33:25.798Z,66.22
2023-01-31T13:36:55.305Z,66.49
2023-01-31T13:40:23.909Z,66.57
2023-01-31T13:43:48.061Z,66.77
2023-01-31T13:47:17.708Z,66.85
2023-01-31T13:50:54.933Z,67.08
2023-01-31T13:54:24.610Z,67.17
2023-01-31T13:58:05.180Z,66.96
2023-01-31T14:01:33.600Z,67.07
2023-01-31T14:05:07.169Z,66.91
2023-01-31T14:08:50.419Z,66.94
2023-01-31T14:12:17.183Z,66.90
2023-01-31T14:15:51.801Z,66.79
2023-01-31T14:19:21.876Z,66.99
2023-01-31T14:23:24.709Z,67.25
2023-01-31T14:26:48.553Z,67.61
2023-01-31T14:30:47.306Z,67.85
2023-01-31T14:34:45.343Z,68.21
2023-01-31T14:39:18.299Z,68.61
2023-01-31T14:43:39.263Z,69.22
2023-01-31T14:47:49.341Z,69.58
2023-01-31T14:51:57.245Z,70.06
2023-01-31T14:56:22.266Z,70.28
2023-01-31T15:00:29.243Z,70.85
2023-01-31T15:04:36.288Z,71.12
2023-01-31T15:08:34.177Z,71.20
2023-01-31T15:13:11.259Z,71.14
2023-01-31T15:17:32.057Z,71.48
2023-01-31T15:21:40.275Z,71.23
2023-01-31T15:25:50.427Z,71.13
2023-01-31T15:30:00.258Z,71.32
2023-01-31T15:34:03.317Z,71.26
2023-01-31T15:38:08.167Z,71.00
2023-01-31T15:42:07.198Z,70.95
2023-01-31T15:46:06.261Z,70.89
2023-01-31T15:50:04.279Z,70.88
2023-01-31T15:54:02.250Z,70.94
2023-01-31T15:58:09.267Z,70.98
2023-01-31T16:02:12.204Z,71.04
2023-01-31T16:06:13.135Z,71.26
2023-01-31T16:10:18.147Z,71.20
2023-01-31T16:14:21.128Z,71.36
2023-01-31T16:18:19.315Z,71.33
2023-01-31T16:22:18.648Z,71.40
2023-01-31T16:26:39.237Z,71.69
2023-01-31T16:30:38.314Z,72.08
2023-01-31T16:34:46.112Z,72.32
2023-01-31T16:38:44.347Z,72.54
2023-01-31T16:42:42.135Z,72.39
2023-01-31T16:46:57.088Z,72.70
2023-01-31T16:50:55.104Z,72.97
2023-01-31T16:55:17.055Z,73.21
2023-01-31T16:59:15.594Z,73.50
2023-01-31T17:03:14.017Z,73.71
2023-01-31T17:07:29.165Z,73.83
2023-01-31T17:11:41.778Z,74.27
2023-01-31T17:15:40.093Z,74.38
2023-01-31T17:19:39.082Z,74.56
2023-01-31T17:23:37.266Z,74.86
2023-01-31T17:27:36.054Z,75.02
2023-01-31T17:31:36.135Z,75.18
2023-01-31T17:35:41.148Z,75.19
2023-01-31T17:39:39.091Z,75.25
2023-01-31T17:43:37.011Z,75.45
2023-01-31T17:47:35.068Z,75.63
2023-01-31T17:51:33.035Z,75.81
2023-01-31T17:55:32.031Z,75.91
2023-01-31T17:59:29.958Z,76.03
2023-01-31T18:03:33.273Z,76.17
2023-01-31T18:07:31.067Z,76.28
2023-01-31T18:11:30.982Z,76.63
2023-01-31T18:15:30.027Z,76.73
2023-01-31T18:19:28.005Z,76.94
2023-01-31T18:23:25.948Z,77.27
2023-01-31T18:27:24.077Z,77.48
2023-01-31T18:31:23.303Z,77.49
2023-01-31T18:35:21.175Z,77.63
2023-01-31T18:39:18.946Z,77.59
2023-01-31T18:43:17.942Z,77.56
2023-01-31T18:47:15.977Z,77.53
2023-01-31T18:51:20.955Z,77.30
2023-01-31T18:55:20.183Z,77.29
2023-01-31T18:59:17.875Z,77.64
2023-01-31T19:03:16.015Z,77.55
2023-01-31T19:07:14.098Z,77.48
2023-01-31T19:11:26.935Z,77.50
2023-01-31T19:15:27.170Z,77.80
2023-01-31T19:19:24.933Z,77.95
2023-01-31T19:23:22.916Z,77.85
2023-01-31T19:27:22.831Z,77.86
2023-01-31T19:31:26.882Z,77.84
2023-01-31T19:35:24.827Z,77.96
2023-01-31T19:39:26.864Z,77.96
2023-01-31T19:43:24.821Z,78.00
2023-01-31T19:47:22.913Z,77.94
2023-01-31T19:51:27.941Z,77.89
2023-01-31T19:55:25.854Z,77.92
2023-01-31T19:59:23.867Z,77.94
2023-01-31T20:03:23.788Z,77.96
2023-01-31T20:07:21.833Z,77.98
2023-01-31T20:11:21.167Z,77.95
2023-01-31T20:15:18.854Z,77.97
2023-01-31T20:19:18.074Z,77.99
2023-01-31T20:23:18.802Z,78.02
2023-01-31T20:27:16.799Z,78.26
2023-01-31T20:31:22.853Z,78.56
2023-01-31T20:35:21.869Z,78.66
2023-01-31T20:39:26.897Z,78.92
2023-01-31T20:43:25.190Z,78.90
2023-01-31T20:47:22.860Z,78.74
2023-01-31T20:51:20.855Z,78.48
2023-01-31T20:55:18.708Z,78.82
2023-01-31T20:59:16.771Z,78.96
2023-01-31T21:03:14.731Z,79.16
2023-01-31T21:07:12.745Z,79.11
2023-01-31T21:11:15.156Z,79.50
2023-01-31T21:15:12.800Z,79.90
2023-01-31T21:19:10.808Z,80.03
2023-01-31T21:23:08.821Z,80.76
2023-01-31T21:27:06.706Z,81.01
2023-01-31T21:31:17.089Z,80.89
2023-01-31T21:35:14.703Z,81.81
2023-01-31T21:39:12.681Z,82.25
2023-01-31T21:43:11.718Z,82.53
2023-01-31T21:47:11.710Z,82.40
2023-01-31T21:51:10.695Z,82.71
2023-01-31T21:55:08.826Z,83.14
2023-01-31T21:59:10.671Z,83.21
2023-01-31T22:03:09.653Z,83.22
2023-01-31T22:07:07.603Z,83.37
2023-01-31T22:11:12.645Z,83.36
2023-01-31T22:15:11.619Z,83.50
2023-01-31T22:19:09.647Z,83.79
2023-01-31T22:23:09.614Z,83.87
2023-01-31T22:27:07.678Z,83.81
2023-01-31T22:31:13.713Z,83.74
2023-01-31T22:35:11.680Z,84.09
2023-01-31T22:39:09.681Z,84.24
2023-01-31T22:43:07.760Z,84.19
2023-01-31T22:47:05.647Z,84.11
2023-01-31T22:51:14.682Z,84.30
2023-01-31T22:55:12.631Z,84.31
2023-01-31T22:59:16.670Z,84.20
2023-01-31T23:03:14.656Z,84.24
2023-01-31T23:07:12.626Z,84.68
2023-01-31T23:11:10.563Z,84.66
2023-01-31T23:15:09.579Z,84.28
2023-01-31T23:19:07.532Z,84.37
2023-01-31T23:23:10.584Z,84.29
2023-01-31T23:27:08.529Z,84.94
2023-01-31T23:31:06.588Z,85.15
2023-01-31T23:35:04.521Z,84.57
2023-01-31T23:39:02.567Z,85.33
2023-01-31T23:43:00.489Z,85.60
2023-01-31T23:47:01.026Z,85.55
2023-01-31T23:50:58.487Z,85.66
2023-01-31T23:54:56.510Z,86.05
2023-01-31T23:58:54.459Z,86.29
